Time;durP1;ratioP1;P1;durP2;ratioP2;P2;SDS_P1;SDS_P2;PMS_P1;PMS_P2;Temp;Humidity;BMP_temperature;BMP_pressure;BME280_temperature;BME280_humidity;BME280_pressure;Samples;Min_cycle;Max_cycle;Signal;HPM_P1;HPM_P2
2023/09/14 00:01:32;;;;;;;13.03;10.17;;;26.40;75.20;;;;;;5084233;28;20539;-69
2023/09/14 00:03:59;;;;;;;14.67;9.90;;;26.80;66.40;;;;;;5082589;28;20261;-69
2023/09/14 00:06:27;;;;;;;13.70;10.00;;;26.60;63.80;;;;;;5081439;28;20587;-70
2023/09/14 00:08:55;;;;;;;19.50;12.17;;;26.60;64.80;;;;;;5085913;28;20708;-71
2023/09/14 00:11:22;;;;;;;21.30;12.80;;;26.40;60.10;;;;;;5092019;28;20705;-69
2023/09/14 00:13:50;;;;;;;19.77;11.47;;;25.90;68.00;;;;;;5093285;28;20203;-69
2023/09/14 00:16:18;;;;;;;18.43;11.77;;;26.40;67.20;;;;;;5073036;28;20194;-71
2023/09/14 00:18:45;;;;;;;16.80;11.03;;;27.00;58.70;;;;;;5073082;28;20607;-72
2023/09/14 00:21:13;;;;;;;18.60;10.83;;;27.20;58.20;;;;;;5071411;28;20230;-71
2023/09/14 00:23:41;;;;;;;15.73;10.50;;;27.40;60.30;;;;;;5072227;28;20208;-71
2023/09/14 00:26:09;;;;;;;14.30;9.27;;;27.70;50.10;;;;;;5072615;28;20234;-71
2023/09/14 00:28:36;;;;;;;12.77;8.90;;;27.40;50.90;;;;;;5083194;28;20180;-70
2023/09/14 00:31:04;;;;;;;15.07;7.47;;;27.40;53.30;;;;;;5071153;28;20188;-71
2023/09/14 00:33:32;;;;;;;16.43;8.47;;;27.70;44.70;;;;;;5084410;28;20270;-71
2023/09/14 00:35:59;;;;;;;16.43;9.50;;;27.70;47.70;;;;;;5082382;28;20176;-71
2023/09/14 00:38:27;;;;;;;15.87;8.17;;;27.90;47.40;;;;;;5077240;28;20344;-72
2023/09/14 00:40:54;;;;;;;17.17;9.13;;;27.90;47.40;;;;;;5072911;28;20176;-72
2023/09/14 00:43:22;;;;;;;13.93;8.27;;;28.00;47.70;;;;;;5070560;28;20226;-73
2023/09/14 00:45:50;;;;;;;12.70;8.07;;;28.00;46.90;;;;;;5070811;28;20211;-72
2023/09/14 00:48:18;;;;;;;16.17;8.27;;;28.00;49.80;;;;;;5071211;28;20576;-71
2023/09/14 00:50:47;;;;;;;13.23;8.43;;;27.90;46.50;;;;;;5071366;28;20195;-71
2023/09/14 00:53:16;;;;;;;16.57;8.57;;;28.00;44.90;;;;;;5070236;28;20337;-71
2023/09/14 00:55:44;;;;;;;13.67;8.60;;;28.70;45.50;;;;;;5071120;28;20222;-72
2023/09/14 00:58:15;;;;;;;10.73;8.47;;;29.00;41.50;;;;;;5071241;28;20168;-73
2023/09/14 01:00:45;;;;;;;18.07;7.77;;;28.70;40.50;;;;;;5070994;28;20712;-73
2023/09/14 01:03:13;;;;;;;15.47;7.83;;;28.20;41.40;;;;;;5069505;28;20176;-72
2023/09/14 01:05:44;;;;;;;17.27;7.87;;;28.00;39.60;;;;;;5071051;28;20329;-72
2023/09/14 01:08:12;;;;;;;19.40;7.83;;;28.30;41.10;;;;;;5070847;28;20176;-71
2023/09/14 01:10:39;;;;;;;10.63;7.27;;;28.50;41.00;;;;;;5070495;28;20225;-72
2023/09/14 01:13:12;;;;;;;16.20;7.10;;;28.30;41.00;;;;;;5070957;28;20188;-72
2023/09/14 01:15:47;;;;;;;16.33;7.57;;;28.40;44.60;;;;;;5070536;28;20183;-72
2023/09/14 01:18:42;;;;;;;11.53;6.93;;;27.80;39.80;;;;;;5071188;28;20262;-72
2023/09/14 01:21:16;;;;;;;13.30;6.80;;;27.60;40.70;;;;;;5050682;28;20306;-73
2023/09/14 01:24:08;;;;;;;10.27;6.40;;;27.80;39.00;;;;;;5070733;28;20207;-72
2023/09/14 01:26:37;;;;;;;10.13;6.43;;;28.60;37.40;;;;;;5070810;28;20219;-71
2023/09/14 01:29:04;;;;;;;13.53;6.03;;;28.70;37.10;;;;;;5070363;28;20298;-72
2023/09/14 01:31:33;;;;;;;12.50;6.03;;;28.70;36.60;;;;;;5070954;28;20176;-73
2023/09/14 01:34:00;;;;;;;12.87;6.67;;;28.80;36.30;;;;;;5073376;28;20263;-74
2023/09/14 01:36:47;;;;;;;11.53;5.80;;;28.20;37.80;;;;;;5074263;28;20184;-74
2023/09/14 01:39:16;;;;;;;10.27;6.03;;;28.60;37.00;;;;;;5074321;28;20180;-73
2023/09/14 01:41:44;;;;;;;10.10;5.93;;;28.60;34.70;;;;;;5074752;28;20175;-72
2023/09/14 01:44:12;;;;;;;12.33;5.93;;;28.70;35.50;;;;;;5073535;28;20633;-71
2023/09/14 01:46:40;;;;;;;10.80;5.50;;;29.30;35.00;;;;;;5074499;28;20362;-72
2023/09/14 01:49:08;;;;;;;11.30;5.57;;;29.30;31.60;;;;;;5074906;28;20587;-71
2023/09/14 01:51:36;;;;;;;8.87;5.10;;;29.60;32.50;;;;;;5073445;28;20172;-70
2023/09/14 02:00:47;;;;;;;6.45;4.15;;;30.10;33.30;;;;;;5073528;28;20190;-72
2023/09/14 02:03:15;;;;;;;8.93;4.68;;;30.50;26.20;;;;;;5074192;28;20187;-71
2023/09/14 02:05:42;;;;;;;12.95;4.95;;;30.80;25.90;;;;;;5073670;28;20206;-71
2023/09/14 02:08:10;;;;;;;6.78;4.00;;;31.10;28.30;;;;;;5074371;28;20202;-71
2023/09/14 02:10:38;;;;;;;12.68;4.38;;;30.90;26.40;;;;;;5074079;28;20183;-72
2023/09/14 02:13:06;;;;;;;5.88;3.83;;;30.70;23.40;;;;;;5074582;28;20229;-71
2023/09/14 02:15:33;;;;;;;5.72;3.97;;;31.20;23.00;;;;;;5075344;28;20700;-71
2023/09/14 02:18:01;;;;;;;7.40;3.65;;;30.60;21.90;;;;;;5075566;28;20180;-71
2023/09/14 02:20:29;;;;;;;7.25;3.75;;;30.20;22.20;;;;;;5075259;28;20178;-71
2023/09/14 02:22:57;;;;;;;7.43;3.38;;;30.80;23.30;;;;;;5075468;28;20179;-71
2023/09/14 02:25:25;;;;;;;4.85;3.42;;;31.20;24.20;;;;;;5075062;28;20235;-72
2023/09/14 02:27:53;;;;;;;4.25;3.60;;;31.50;20.70;;;;;;5074252;28;20176;-70
2023/09/14 02:30:21;;;;;;;10.55;3.63;;;31.80;19.90;;;;;;5075740;28;20184;-70
2023/09/14 02:32:48;;;;;;;7.47;3.47;;;31.50;19.10;;;;;;5075301;28;20172;-72
2023/09/14 02:35:16;;;;;;;4.78;3.20;;;31.30;18.10;;;;;;5075170;28;20241;-72
2023/09/14 02:37:44;;;;;;;13.98;4.05;;;31.00;19.40;;;;;;5075137;28;20259;-71
2023/09/14 02:40:13;;;;;;;3.70;3.10;;;30.90;17.50;;;;;;5075182;28;20181;-72
2023/09/14 02:42:40;;;;;;;6.82;3.55;;;30.80;20.40;;;;;;5075126;28;20195;-72
2023/09/14 02:45:08;;;;;;;5.97;3.30;;;31.10;20.30;;;;;;5074184;28;20219;-69
2023/09/14 02:47:36;;;;;;;7.68;3.38;;;31.30;20.60;;;;;;5074954;28;20164;-72
2023/09/14 02:50:04;;;;;;;4.93;2.80;;;31.80;17.00;;;;;;5075005;28;20633;-71
2023/09/14 02:52:32;;;;;;;4.97;2.95;;;32.00;15.50;;;;;;5075006;28;20183;-71
2023/09/14 02:54:59;;;;;;;10.07;3.17;;;31.40;14.90;;;;;;5075110;28;20609;-71
2023/09/14 02:57:27;;;;;;;6.03;3.45;;;30.40;14.20;;;;;;5074777;28;20191;-71
2023/09/14 02:59:55;;;;;;;7.20;3.13;;;29.70;14.40;;;;;;5074774;28;20251;-71
2023/09/14 03:02:24;;;;;;;5.50;3.10;;;29.10;16.10;;;;;;5074631;28;20594;-72
2023/09/14 03:04:52;;;;;;;6.17;3.27;;;29.30;14.70;;;;;;5074762;28;20208;-71
2023/09/14 03:07:19;;;;;;;3.90;2.45;;;29.50;16.80;;;;;;5074734;28;20164;-72
2023/09/14 03:09:47;;;;;;;4.73;2.67;;;30.00;15.20;;;;;;5074848;28;20702;-71
2023/09/14 03:12:15;;;;;;;4.07;2.63;;;30.40;16.90;;;;;;5074501;28;20176;-71
2023/09/14 03:14:42;;;;;;;4.72;2.88;;;30.60;15.30;;;;;;5074524;28;20563;-72
2023/09/14 03:17:10;;;;;;;3.42;2.28;;;30.50;14.50;;;;;;5074459;28;20182;-71
2023/09/14 03:19:38;;;;;;;3.25;2.42;;;30.60;13.60;;;;;;5074357;28;20180;-72
2023/09/14 03:22:06;;;;;;;3.33;2.00;;;30.80;13.30;;;;;;5074647;28;20626;-71
2023/09/14 03:24:34;;;;;;;2.53;2.03;;;30.90;11.70;;;;;;5074224;28;20219;-72
2023/09/14 03:27:02;;;;;;;2.50;1.80;;;30.90;10.30;;;;;;5074011;28;20236;-71
2023/09/14 03:29:30;;;;;;;2.47;1.80;;;30.80;9.90;;;;;;5073849;28;20184;-72
2023/09/14 03:31:58;;;;;;;3.35;1.95;;;30.70;9.70;;;;;;5073942;28;20593;-71
2023/09/14 03:34:25;;;;;;;2.70;1.65;;;30.50;11.20;;;;;;5072350;28;20241;-71
2023/09/14 03:36:53;;;;;;;3.10;2.05;;;30.50;5.20;;;;;;5060509;28;20187;-74
2023/09/14 03:39:21;;;;;;;3.22;2.30;;;30.80;4.90;;;;;;5071772;28;20278;-73
2023/09/14 03:41:49;;;;;;;6.60;2.53;;;29.90;6.80;;;;;;5072370;28;20199;-73
2023/09/14 03:44:17;;;;;;;3.60;2.60;;;29.90;7.20;;;;;;5071862;28;20269;-72
2023/09/14 03:46:45;;;;;;;3.25;2.60;;;29.80;7.90;;;;;;5072417;28;20172;-71
2023/09/14 03:49:12;;;;;;;5.10;2.67;;;30.10;9.20;;;;;;5071933;28;20208;-73
2023/09/14 03:51:40;;;;;;;5.57;2.10;;;30.20;6.10;;;;;;5071438;28;20240;-72
2023/09/14 03:54:08;;;;;;;3.47;2.05;;;30.50;7.40;;;;;;5071485;28;20524;-71
2023/09/14 03:56:37;;;;;;;4.43;1.95;;;30.50;4.30;;;;;;5071975;28;20641;-73
2023/09/14 03:59:05;;;;;;;6.95;2.35;;;30.60;7.50;;;;;;5071456;28;20229;-72
2023/09/14 04:01:33;;;;;;;6.75;2.38;;;30.70;5.10;;;;;;5071742;28;20626;-72
2023/09/14 04:04:02;;;;;;;3.97;2.10;;;30.50;5.90;;;;;;5071727;28;20223;-73
2023/09/14 04:06:30;;;;;;;3.73;2.73;;;30.40;4.10;;;;;;5071036;28;20191;-73
2023/09/14 04:08:57;;;;;;;5.32;2.60;;;30.40;4.60;;;;;;5071624;28;20176;-72
2023/09/14 04:11:25;;;;;;;3.47;2.33;;;30.40;4.70;;;;;;5071873;28;20183;-72
2023/09/14 04:20:37;;;;;;;4.50;2.20;;;30.30;8.70;;;;;;5060340;28;20309;-72
2023/09/14 04:23:05;;;;;;;4.00;2.47;;;30.20;5.50;;;;;;5068939;28;20195;-73
2023/09/14 04:25:32;;;;;;;3.30;2.20;;;30.30;7.00;;;;;;5067904;28;20251;-72
2023/09/14 04:28:03;;;;;;;2.80;2.33;;;30.40;3.50;;;;;;5053343;28;20216;-71
2023/09/14 04:30:31;;;;;;;4.27;2.50;;;30.10;4.30;;;;;;5060167;28;20267;-71
2023/09/14 04:32:58;;;;;;;3.93;2.30;;;30.00;3.90;;;;;;5070797;28;20191;-71
2023/09/14 04:35:25;;;;;;;3.80;2.40;;;29.70;3.40;;;;;;5070606;28;20573;-71
2023/09/14 04:37:53;;;;;;;3.23;2.80;;;29.70;4.70;;;;;;5070621;28;20175;-73
2023/09/14 04:40:20;;;;;;;3.90;2.50;;;29.60;3.70;;;;;;5070891;28;20247;-72
2023/09/14 04:42:47;;;;;;;3.10;2.13;;;29.60;4.10;;;;;;5070656;28;20180;-72
2023/09/14 04:45:15;;;;;;;4.13;2.50;;;29.40;4.70;;;;;;5070241;28;20250;-72
2023/09/14 04:47:42;;;;;;;9.07;2.57;;;29.40;6.90;;;;;;5070239;28;20191;-72
2023/09/14 04:53:31;;;;;;;3.90;2.60;;;29.30;6.40;;;;;;5070322;28;20557;-73
2023/09/14 04:55:59;;;;;;;4.80;2.30;;;29.20;5.00;;;;;;5070000;28;20795;-72
2023/09/14 04:58:26;;;;;;;7.77;2.40;;;29.20;6.00;;;;;;5070475;28;20255;-73
2023/09/14 05:00:53;;;;;;;4.17;2.50;;;29.20;3.10;;;;;;5070668;28;20172;-69
2023/09/14 05:03:21;;;;;;;3.70;2.27;;;29.20;3.20;;;;;;5069179;28;20196;-72
2023/09/14 05:05:52;;;;;;;5.70;3.00;;;29.00;3.40;;;;;;5070073;28;20214;-71
2023/09/14 05:08:20;;;;;;;6.37;2.67;;;29.00;2.10;;;;;;5072209;28;20262;-70
2023/09/14 05:10:51;;;;;;;6.13;2.30;;;29.00;2.70;;;;;;5061339;28;20282;-71
2023/09/14 05:13:21;;;;;;;3.43;2.30;;;28.80;2.20;;;;;;5074433;28;20563;-73
2023/09/14 05:15:48;;;;;;;8.27;2.33;;;28.60;2.00;;;;;;5074086;28;20591;-73
2023/09/14 05:18:16;;;;;;;4.07;2.30;;;28.30;1.80;;;;;;5074302;28;20228;-73
2023/09/14 05:20:49;;;;;;;4.63;2.30;;;28.00;2.70;;;;;;5074249;28;20196;-72
2023/09/14 05:23:17;;;;;;;4.17;2.47;;;27.90;3.20;;;;;;5073383;28;20634;-71
2023/09/14 05:25:45;;;;;;;3.73;2.40;;;28.00;3.30;;;;;;5073576;28;20227;-72
2023/09/14 05:28:14;;;;;;;6.10;2.83;;;28.10;3.10;;;;;;5074692;28;20179;-71
2023/09/14 05:30:43;;;;;;;4.73;2.90;;;28.10;3.60;;;;;;5073518;28;20261;-72
2023/09/14 05:33:10;;;;;;;4.37;2.87;;;28.40;3.20;;;;;;5073543;28;20184;-73
2023/09/14 05:35:38;;;;;;;4.03;2.90;;;28.50;3.80;;;;;;5073776;28;20556;-71
2023/09/14 05:38:06;;;;;;;6.57;3.00;;;28.50;3.80;;;;;;5073486;28;20259;-75
2023/09/14 05:40:33;;;;;;;5.47;2.47;;;28.60;3.90;;;;;;5080790;28;20176;-72
2023/09/14 05:43:01;;;;;;;4.43;2.80;;;28.50;4.90;;;;;;5083148;28;20308;-71
2023/09/14 05:45:28;;;;;;;4.13;2.73;;;28.50;4.80;;;;;;5084189;28;20246;-72
2023/09/14 05:47:55;;;;;;;5.90;2.50;;;28.40;2.50;;;;;;5082934;28;20225;-71
2023/09/14 05:50:23;;;;;;;10.13;8.33;;;28.30;2.40;;;;;;5083560;28;20585;-72
2023/09/14 05:52:50;;;;;;;20.33;14.97;;;28.10;6.20;;;;;;5094209;28;20530;-72
2023/09/14 05:55:17;;;;;;;22.40;16.60;;;28.00;9.70;;;;;;5093737;28;20719;-73
2023/09/14 05:57:45;;;;;;;22.20;19.00;;;27.90;13.30;;;;;;5089977;28;20176;-73
2023/09/14 06:00:13;;;;;;;26.93;19.47;;;27.90;13.70;;;;;;5073197;28;20191;-74
2023/09/14 06:02:43;;;;;;;25.57;20.60;;;27.80;13.50;;;;;;5073239;28;20176;-72
2023/09/14 06:05:11;;;;;;;22.97;19.23;;;27.70;12.50;;;;;;5073985;28;20787;-72
2023/09/14 06:07:38;;;;;;;28.07;19.17;;;27.50;13.50;;;;;;5079331;28;20211;-72
2023/09/14 06:10:06;;;;;;;24.40;19.53;;;27.30;14.70;;;;;;5073159;28;20187;-71
2023/09/14 06:12:34;;;;;;;27.97;18.33;;;27.20;16.40;;;;;;5073820;28;20188;-72
2023/09/14 06:15:02;;;;;;;23.17;18.40;;;27.00;17.70;;;;;;5072703;28;20292;-72
2023/09/14 06:17:29;;;;;;;27.87;18.33;;;26.90;19.10;;;;;;5073501;28;20317;-72
2023/09/14 06:19:57;;;;;;;18.30;16.20;;;26.70;20.40;;;;;;5072889;28;20176;-71
2023/09/14 06:22:24;;;;;;;21.23;17.60;;;26.70;22.80;;;;;;5073587;28;20913;-73
2023/09/14 06:24:51;;;;;;;22.47;17.47;;;26.60;22.30;;;;;;5081360;28;20203;-70
2023/09/14 06:27:19;;;;;;;21.00;17.77;;;26.60;22.10;;;;;;5083489;28;20704;-70
2023/09/14 06:29:46;;;;;;;20.30;17.30;;;26.40;22.20;;;;;;5079413;28;20187;-73
2023/09/14 06:32:14;;;;;;;22.23;16.93;;;26.30;23.20;;;;;;5071114;28;20329;-72
2023/09/14 06:34:41;;;;;;;25.57;17.20;;;26.30;24.30;;;;;;5073997;28;20283;-71
2023/09/14 06:37:08;;;;;;;19.73;16.07;;;26.10;25.60;;;;;;5073589;28;20262;-71
2023/09/14 06:39:36;;;;;;;20.47;15.53;;;26.10;27.60;;;;;;5072547;28;20180;-71
2023/09/14 06:42:03;;;;;;;18.10;14.80;;;26.00;28.10;;;;;;5073444;28;20186;-72
2023/09/14 06:44:31;;;;;;;22.93;14.87;;;26.00;29.60;;;;;;5073028;28;20212;-71
2023/09/14 06:47:00;;;;;;;20.37;15.00;;;25.80;29.90;;;;;;5072918;28;20207;-71
2023/09/14 06:49:27;;;;;;;20.10;15.00;;;25.70;31.30;;;;;;5073481;28;20180;-73
2023/09/14 06:51:54;;;;;;;18.63;15.10;;;25.50;31.60;;;;;;5073339;28;20208;-70
2023/09/14 06:54:22;;;;;;;18.10;13.27;;;25.40;32.30;;;;;;5071337;28;20191;-70
2023/09/14 06:56:49;;;;;;;19.07;13.90;;;25.30;33.20;;;;;;5072773;28;20211;-71
2023/09/14 06:59:17;;;;;;;17.93;13.73;;;25.20;33.50;;;;;;5072719;28;20174;-71
2023/09/14 07:01:44;;;;;;;19.13;13.90;;;24.90;34.20;;;;;;5071010;28;20183;-71
2023/09/14 07:04:11;;;;;;;17.77;13.83;;;24.80;36.70;;;;;;5072346;28;20613;-71
2023/09/14 07:06:39;;;;;;;17.17;13.53;;;24.60;40.10;;;;;;5072486;28;20191;-71
2023/09/14 07:09:08;;;;;;;17.57;12.93;;;24.50;41.10;;;;;;5071636;28;20186;-71
2023/09/14 07:11:35;;;;;;;20.53;12.03;;;24.40;42.90;;;;;;5072776;28;20203;-71
2023/09/14 07:14:06;;;;;;;15.83;11.93;;;24.20;43.80;;;;;;5073877;28;20192;-71
2023/09/14 07:16:34;;;;;;;16.07;11.87;;;24.20;45.30;;;;;;5073825;28;20182;-71
2023/09/14 07:19:02;;;;;;;15.87;11.27;;;24.00;46.70;;;;;;5065021;28;20936;-70
2023/09/14 07:21:34;;;;;;;15.93;10.70;;;23.90;48.20;;;;;;5070564;28;20180;-71
2023/09/14 07:24:02;;;;;;;15.67;10.73;;;23.70;49.00;;;;;;5066974;28;20207;-73
2023/09/14 07:26:29;;;;;;;18.03;10.80;;;23.60;51.10;;;;;;5051473;28;20228;-71
2023/09/14 07:28:57;;;;;;;15.87;10.67;;;23.70;50.90;;;;;;5058876;28;20595;-71
2023/09/14 07:31:25;;;;;;;12.10;9.87;;;23.70;50.30;;;;;;5071812;28;20168;-72
2023/09/14 07:33:52;;;;;;;15.57;10.17;;;23.60;51.30;;;;;;5071477;28;20910;-72
2023/09/14 07:36:20;;;;;;;12.70;10.03;;;23.40;50.90;;;;;;5088051;28;20648;-70
2023/09/14 07:38:49;;;;;;;11.20;9.10;;;23.30;52.40;;;;;;5090676;28;20198;-73
2023/09/14 07:41:16;;;;;;;12.40;9.13;;;23.20;54.50;;;;;;5083658;28;20293;-72
2023/09/14 07:43:43;;;;;;;14.27;9.10;;;22.90;58.30;;;;;;5070291;28;20210;-72
2023/09/14 07:46:11;;;;;;;13.10;9.87;;;22.70;61.20;;;;;;5071574;28;20188;-71
2023/09/14 07:48:38;;;;;;;12.00;9.63;;;22.70;61.40;;;;;;5069996;28;20184;-69
2023/09/14 07:51:05;;;;;;;12.30;9.57;;;22.70;62.70;;;;;;5070496;28;20226;-73
2023/09/14 07:53:33;;;;;;;13.33;9.77;;;22.50;67.00;;;;;;5071192;28;20212;-71
2023/09/14 07:56:00;;;;;;;12.43;9.83;;;22.40;68.10;;;;;;5069692;28;20245;-72
2023/09/14 07:58:27;;;;;;;13.20;9.97;;;22.20;73.90;;;;;;5071263;28;20183;-71
2023/09/14 08:00:55;;;;;;;13.73;9.50;;;22.00;83.40;;;;;;5071406;28;20211;-71
2023/09/14 08:03:23;;;;;;;14.40;9.93;;;21.70;88.70;;;;;;5068933;28;20563;-71
2023/09/14 08:05:51;;;;;;;13.90;10.33;;;21.60;90.30;;;;;;5070462;28;20606;-71
2023/09/14 08:08:20;;;;;;;18.37;9.70;;;21.50;94.30;;;;;;5069520;28;20198;-71
2023/09/14 08:10:55;;;;;;;12.87;9.20;;;21.40;95.50;;;;;;5070201;28;20551;-72
2023/09/14 08:13:23;;;;;;;13.03;9.50;;;21.30;98.10;;;;;;5051403;28;20183;-70
2023/09/14 08:15:50;;;;;;;15.77;10.10;;;21.20;98.60;;;;;;5070663;28;20195;-71
2023/09/14 08:18:18;;;;;;;16.43;10.43;;;21.00;99.90;;;;;;5069294;28;20215;-69
2023/09/14 08:20:55;;;;;;;15.17;9.50;;;20.90;99.90;;;;;;5070937;28;20671;-71
2023/09/14 08:23:23;;;;;;;12.57;9.40;;;20.80;99.90;;;;;;5070982;28;20210;-69
2023/09/14 08:25:50;;;;;;;15.67;8.83;;;20.70;99.90;;;;;;5049374;28;20334;-71
2023/09/14 08:28:20;;;;;;;13.03;9.00;;;20.60;99.90;;;;;;5070752;28;20555;-72
2023/09/14 08:30:48;;;;;;;15.20;8.73;;;20.40;99.90;;;;;;5070665;28;20515;-71
2023/09/14 08:33:17;;;;;;;12.83;9.27;;;20.30;99.90;;;;;;5070484;28;20207;-72
2023/09/14 08:35:45;;;;;;;15.07;8.60;;;20.20;99.90;;;;;;5070645;28;20567;-71
2023/09/14 08:38:13;;;;;;;13.53;9.20;;;20.10;99.90;;;;;;5070281;28;20175;-71
2023/09/14 08:40:42;;;;;;;10.90;8.40;;;20.00;99.90;;;;;;5067483;28;20188;-70
2023/09/14 08:43:13;;;;;;;14.37;8.23;;;19.90;99.90;;;;;;5069979;28;20184;-71
2023/09/14 08:45:42;;;;;;;12.33;8.67;;;19.80;99.90;;;;;;5069803;28;20246;-72
2023/09/14 08:48:15;;;;;;;10.30;8.13;;;19.70;99.90;;;;;;5071446;28;20607;-71
2023/09/14 08:50:44;;;;;;;14.20;8.57;;;19.50;99.90;;;;;;5071959;28;20779;-72
2023/09/14 08:53:16;;;;;;;16.30;8.37;;;19.50;99.90;;;;;;5071309;28;20180;-70
2023/09/14 08:55:43;;;;;;;10.30;7.67;;;19.30;99.90;;;;;;5071983;28;20179;-70
2023/09/14 08:58:15;;;;;;;11.13;8.27;;;19.20;99.90;;;;;;5071468;28;20655;-72
2023/09/14 09:00:44;;;;;;;9.93;8.13;;;19.10;99.90;;;;;;5072122;28;20176;-70
2023/09/14 09:03:12;;;;;;;10.07;7.47;;;19.00;99.90;;;;;;5070814;28;20270;-70
2023/09/14 09:05:43;;;;;;;12.67;7.87;;;18.80;99.90;;;;;;5071398;28;20355;-71
2023/09/14 09:08:11;;;;;;;10.60;7.23;;;18.80;99.90;;;;;;5057554;28;20180;-72
2023/09/14 09:10:40;;;;;;;11.10;7.67;;;18.60;99.90;;;;;;5071693;28;20213;-71
2023/09/14 09:13:07;;;;;;;11.40;7.53;;;18.50;99.90;;;;;;5071383;28;20179;-71
2023/09/14 09:15:37;;;;;;;15.83;7.67;;;18.40;99.90;;;;;;5070964;28;20191;-72
2023/09/14 09:18:07;;;;;;;12.47;7.93;;;18.30;99.90;;;;;;5070373;28;20184;-71
2023/09/14 09:20:36;;;;;;;12.53;7.63;;;18.20;99.90;;;;;;5072035;28;20401;-71
2023/09/14 09:23:05;;;;;;;11.03;7.20;;;18.20;99.90;;;;;;5071930;28;20271;-71
2023/09/14 09:25:47;;;;;;;14.60;8.30;;;18.10;99.90;;;;;;5071373;28;20228;-70
2023/09/14 09:28:15;;;;;;;13.80;7.10;;;18.00;99.90;;;;;;5071789;28;20177;-71
2023/09/14 09:30:44;;;;;;;12.37;7.80;;;18.00;99.90;;;;;;5072190;28;20204;-72
2023/09/14 09:33:12;;;;;;;12.87;7.43;;;18.00;99.90;;;;;;5072215;28;20176;-71
2023/09/14 09:35:39;;;;;;;11.77;8.00;;;17.90;99.90;;;;;;5070550;28;20267;-72
2023/09/14 09:38:15;;;;;;;12.23;7.90;;;17.80;99.90;;;;;;5071878;28;20186;-72
2023/09/14 09:40:45;;;;;;;9.07;7.03;;;17.70;99.90;;;;;;5072465;28;20198;-70
2023/09/14 09:43:16;;;;;;;12.67;7.33;;;17.60;99.90;;;;;;5071729;28;20543;-72
2023/09/14 09:45:44;;;;;;;10.23;7.00;;;17.50;99.90;;;;;;5072149;28;20269;-71
2023/09/14 09:48:13;;;;;;;11.90;7.30;;;17.40;99.90;;;;;;5071668;28;20176;-70
2023/09/14 09:50:40;;;;;;;11.00;7.27;;;17.30;99.90;;;;;;5071680;28;20191;-69
2023/09/14 09:53:14;;;;;;;12.53;6.77;;;17.20;99.90;;;;;;5071740;28;20543;-71
2023/09/14 09:55:45;;;;;;;12.17;7.30;;;17.20;99.90;;;;;;5075228;28;20313;-70
2023/09/14 09:58:16;;;;;;;17.03;7.70;;;17.10;99.90;;;;;;5075426;28;20221;-71
2023/09/14 10:00:44;;;;;;;9.93;7.03;;;17.10;99.90;;;;;;5075591;28;20176;-71
2023/09/14 10:03:18;;;;;;;10.87;6.73;;;17.10;99.90;;;;;;5075331;28;20672;-68
2023/09/14 10:05:45;;;;;;;12.30;7.40;;;17.00;99.90;;;;;;5075363;28;20220;-68
2023/09/14 10:08:21;;;;;;;10.87;7.37;;;17.00;99.90;;;;;;5074029;28;20262;-71
2023/09/14 10:10:52;;;;;;;12.00;7.47;;;;;;;;;;5075206;28;20532;-70
2023/09/14 10:13:28;;;;;;;13.27;7.47;;;16.90;99.90;;;;;;5055656;28;20185;-70
2023/09/14 10:15:56;;;;;;;9.27;6.83;;;16.90;99.90;;;;;;5055023;28;20545;-70
2023/09/14 10:18:25;;;;;;;8.80;6.57;;;16.90;99.90;;;;;;5057007;28;20187;-70
2023/09/14 10:20:55;;;;;;;11.67;7.30;;;16.80;99.90;;;;;;5074703;28;20188;-68
2023/09/14 10:23:23;;;;;;;14.90;6.70;;;16.70;99.90;;;;;;5073993;28;20199;-71
2023/09/14 10:25:52;;;;;;;8.60;6.53;;;16.70;99.90;;;;;;5074636;28;20228;-71
2023/09/14 10:28:22;;;;;;;8.90;6.37;;;16.60;99.90;;;;;;5077781;28;20184;-69
2023/09/14 10:30:52;;;;;;;8.00;6.73;;;16.60;99.90;;;;;;5080778;28;20196;-69
2023/09/14 10:33:21;;;;;;;15.77;7.00;;;16.60;99.90;;;;;;5075454;28;20203;-69
2023/09/14 10:35:51;;;;;;;10.80;6.30;;;16.50;99.90;;;;;;5074843;28;20695;-70
2023/09/14 10:38:22;;;;;;;18.30;6.97;;;16.50;99.90;;;;;;5073646;28;20681;-69
2023/09/14 10:40:53;;;;;;;13.63;7.17;;;16.40;99.90;;;;;;5073204;28;20612;-69
2023/09/14 10:43:20;;;;;;;9.87;6.33;;;16.50;99.90;;;;;;5073405;28;20180;-69
2023/09/14 10:45:49;;;;;;;11.57;7.10;;;16.50;99.90;;;;;;5074640;28;20629;-68
2023/09/14 10:48:21;;;;;;;15.57;7.30;;;16.40;99.90;;;;;;5074288;28;20172;-68
2023/09/14 10:50:53;;;;;;;9.47;6.50;;;16.30;99.90;;;;;;5073176;28;20184;-68
2023/09/14 10:53:23;;;;;;;11.77;6.97;;;16.30;99.90;;;;;;5074131;28;20169;-69
2023/09/14 10:55:51;;;;;;;15.77;7.37;;;16.30;99.90;;;;;;5077022;28;20175;-69
2023/09/14 10:58:20;;;;;;;8.90;6.77;;;;;;;;;;5081160;28;20614;-68
2023/09/14 11:00:55;;;;;;;11.33;6.53;;;16.00;99.90;;;;;;5073967;28;20183;-68
2023/09/14 11:03:23;;;;;;;9.07;6.30;;;16.00;99.90;;;;;;5074138;28;20229;-69
2023/09/14 11:05:53;;;;;;;9.90;6.50;;;16.00;99.90;;;;;;5073480;28;20314;-71
2023/09/14 11:08:21;;;;;;;9.17;6.33;;;16.00;99.90;;;;;;5074220;28;20203;-68
2023/09/14 11:11:00;;;;;;;11.63;7.10;;;15.90;99.90;;;;;;5074203;28;20195;-69
2023/09/14 11:13:33;;;;;;;13.47;7.43;;;15.90;99.90;;;;;;5073497;28;20228;-68
2023/09/14 11:16:13;;;;;;;11.63;6.77;;;15.80;99.90;;;;;;5074104;28;20609;-69
2023/09/14 11:18:44;;;;;;;10.23;6.23;;;15.80;99.90;;;;;;5074031;28;20187;-71
2023/09/14 11:21:32;;;;;;;12.97;7.70;;;15.80;99.90;;;;;;5073789;28;20176;-70
2023/09/14 11:24:03;;;;;;;12.97;7.70;;;15.70;99.90;;;;;;5073799;28;20204;-69
2023/09/14 11:26:37;;;;;;;13.77;7.30;;;15.60;99.90;;;;;;5072291;28;20586;-70
2023/09/14 11:29:07;;;;;;;10.40;7.00;;;15.60;99.90;;;;;;5073966;28;20175;-71
2023/09/14 11:31:36;;;;;;;8.43;6.70;;;15.60;99.90;;;;;;5073968;28;20203;-69
2023/09/14 11:34:16;;;;;;;11.40;7.67;;;15.60;99.90;;;;;;5073782;28;20254;-70
2023/09/14 11:36:45;;;;;;;11.83;7.33;;;15.50;99.90;;;;;;5073534;28;20178;-69
2023/09/14 11:39:13;;;;;;;11.43;7.37;;;15.40;99.90;;;;;;5055807;28;20191;-69
2023/09/14 11:42:06;;;;;;;10.50;6.87;;;15.40;99.90;;;;;;5073714;28;20169;-68
2023/09/14 11:44:47;;;;;;;14.07;7.40;;;15.30;99.90;;;;;;5072405;28;20234;-70
2023/09/14 11:47:16;;;;;;;13.70;7.70;;;15.30;99.90;;;;;;5073824;28;20172;-72
2023/09/14 11:49:47;;;;;;;13.27;7.90;;;15.30;99.90;;;;;;5073612;28;20179;-70
2023/09/14 11:52:21;;;;;;;9.60;7.03;;;15.30;99.90;;;;;;5073512;28;20175;-71
2023/09/14 11:54:51;;;;;;;11.53;7.23;;;15.20;99.90;;;;;;5072001;28;20637;-71
2023/09/14 11:57:26;;;;;;;10.40;7.23;;;15.10;99.90;;;;;;5073293;28;20229;-70
2023/09/14 11:59:53;;;;;;;11.47;7.33;;;15.10;99.90;;;;;;5072201;28;20179;-71
2023/09/14 12:02:22;;;;;;;15.37;7.77;;;15.10;99.90;;;;;;5073038;28;20176;-71
2023/09/14 12:04:50;;;;;;;11.23;7.80;;;15.00;99.90;;;;;;5073217;28;20235;-70
2023/09/14 12:07:21;;;;;;;9.93;7.40;;;14.90;99.90;;;;;;5073226;28;20207;-72
2023/09/14 12:09:48;;;;;;;12.40;7.90;;;14.90;99.90;;;;;;5073331;28;20176;-71
2023/09/14 12:12:27;;;;;;;9.60;7.40;;;14.90;99.90;;;;;;5072840;28;20179;-71
2023/09/14 12:14:54;;;;;;;11.37;8.03;;;14.80;99.90;;;;;;5073128;28;20199;-72
2023/09/14 12:17:27;;;;;;;12.33;8.17;;;14.80;99.90;;;;;;5070239;28;20176;-71
2023/09/14 12:19:58;;;;;;;13.93;8.03;;;14.80;99.90;;;;;;5067809;28;20184;-72
2023/09/14 12:22:28;;;;;;;10.60;7.67;;;14.80;99.90;;;;;;5073515;28;20535;-71
2023/09/14 12:24:56;;;;;;;17.57;7.33;;;14.70;99.90;;;;;;5072737;28;20284;-73
2023/09/14 12:27:24;;;;;;;13.07;8.30;;;14.80;99.90;;;;;;5072170;28;20287;-71
2023/09/14 12:29:52;;;;;;;13.87;8.20;;;14.70;99.90;;;;;;5072545;28;20718;-71
2023/09/14 12:32:20;;;;;;;16.33;8.10;;;14.60;99.90;;;;;;5068904;28;20365;-70
2023/09/14 12:34:49;;;;;;;14.10;9.07;;;14.60;99.90;;;;;;5071861;28;20203;-70
2023/09/14 12:37:19;;;;;;;14.57;8.60;;;14.60;99.90;;;;;;5071760;28;20209;-71
2023/09/14 12:39:51;;;;;;;12.73;7.40;;;14.60;99.90;;;;;;5071970;28;20180;-70
2023/09/14 12:42:20;;;;;;;10.93;7.80;;;14.50;99.90;;;;;;5070875;28;20312;-70
2023/09/14 12:44:48;;;;;;;17.63;8.07;;;14.50;99.90;;;;;;5072425;28;20226;-70
2023/09/14 12:47:16;;;;;;;13.20;8.27;;;14.50;99.90;;;;;;5071646;28;20177;-70
2023/09/14 12:49:44;;;;;;;14.00;8.60;;;14.50;99.90;;;;;;5072292;28;20190;-71
2023/09/14 12:52:12;;;;;;;11.13;7.30;;;14.40;99.90;;;;;;5038579;28;20699;-70
2023/09/14 12:54:42;;;;;;;10.70;7.67;;;14.40;99.90;;;;;;5072375;28;20563;-73
2023/09/14 12:57:15;;;;;;;11.33;7.20;;;14.40;99.90;;;;;;5072058;28;20188;-71
2023/09/14 13:00:11;;;;;;;12.83;8.17;;;14.30;99.90;;;;;;5072116;28;20179;-70
2023/09/14 13:02:40;;;;;;;15.57;8.53;;;14.30;99.90;;;;;;5070845;28;20207;-70
2023/09/14 13:05:08;;;;;;;13.40;8.23;;;14.30;99.90;;;;;;5071688;28;20208;-71
2023/09/14 13:07:49;;;;;;;12.13;8.17;;;14.20;99.90;;;;;;5071852;28;20184;-71